WXM80 ListenWXM80 Stop

You find our weather info also at:

UK Metoffice

WeatherCloud

Weather Underground

Northeastern Weather Network

AWEKAS

Citizen Weather Observer Program (CWOP)

HAMweather, WeatherForYou, PWS Weather


Weather Underground History page Text

Daily Summary for September 23, 2017 Units:  English    Metric   Both
« Previous Day
Next Day »
Daily Weekly Monthly Yearly Custom
  High: Low: Average:
Temperature: 88.4 °F 66.0 °F 75 °F
Dew Point: 71.3 °F 58.7 °F 63.3 °F
Humidity: 85 % 47 % 68 %
Wind Speed: 8.8 mph 0.0 mph 2 mph
Wind Gust: 11.5 mph - -
Wind:- - SE
Pressure: 29.98 in 29.90 in -
Precipitation: 0.00 in    
Historical Graphs
 
 
Tabular Data for September 23, 2017
Time Temperature Dew Point Pressure Wind Wind Speed Wind Gust Humidity Rainfall Rate (Hourly)
00:02 70.4 °F 61.7 °F 29.90 in North 5.2 mph 8.0 mph 74 % 0.00 in
00:07 70.3 °F 61.6 °F 29.90 in North 5.4 mph 11.5 mph 74 % 0.00 in
00:12 70.3 °F 61.6 °F 29.90 in North 5.9 mph 9.2 mph 74 % 0.00 in
00:17 70.2 °F 61.9 °F 29.90 in North 7.3 mph 11.5 mph 75 % 0.00 in
00:22 70.1 °F 61.4 °F 29.90 in North 5.2 mph 8.1 mph 74 % 0.00 in
00:27 70.0 °F 61.3 °F 29.91 in NNE 5.6 mph 9.2 mph 74 % 0.00 in
00:32 69.9 °F 61.2 °F 29.91 in North 5.2 mph 8.1 mph 74 % 0.00 in
00:37 69.9 °F 61.6 °F 29.91 in North 8.8 mph 11.5 mph 75 % 0.00 in
00:42 69.8 °F 61.5 °F 29.90 in NNE 7.2 mph 8.1 mph 75 % 0.00 in
00:47 69.7 °F 61.4 °F 29.90 in NNE 5.7 mph 6.9 mph 75 % 0.00 in
00:52 69.7 °F 61.4 °F 29.90 in NNW 4.4 mph 9.0 mph 75 % 0.00 in
00:58 69.6 °F 61.7 °F 29.91 in North 4.1 mph 8.1 mph 76 % 0.00 in
01:03 69.5 °F 61.6 °F 29.91 in North 5.0 mph 9.2 mph 76 % 0.00 in
01:08 69.5 °F 61.6 °F 29.91 in North 4.9 mph 9.2 mph 76 % 0.00 in
01:13 69.5 °F 61.6 °F 29.91 in NNE 6.9 mph 11.5 mph 76 % 0.00 in
01:18 69.5 °F 61.6 °F 29.91 in NNE 5.9 mph 10.4 mph 76 % 0.00 in
01:23 69.6 °F 61.7 °F 29.91 in NNE 5.6 mph 9.2 mph 76 % 0.00 in
01:28 69.6 °F 61.7 °F 29.91 in NNE 4.7 mph 7.0 mph 76 % 0.00 in
01:33 69.6 °F 61.7 °F 29.91 in NNW 2.9 mph 4.6 mph 76 % 0.00 in
01:38 69.6 °F 61.7 °F 29.91 in NE 4.3 mph 6.9 mph 76 % 0.00 in
01:43 69.6 °F 61.3 °F 29.91 in North 6.1 mph 8.1 mph 75 % 0.00 in
01:48 69.6 °F 61.3 °F 29.90 in North 2.9 mph 5.8 mph 75 % 0.00 in
01:53 69.5 °F 61.2 °F 29.90 in NNE 5.0 mph 8.1 mph 75 % 0.00 in
01:58 69.5 °F 61.2 °F 29.90 in North 5.8 mph 6.9 mph 75 % 0.00 in
02:03 69.5 °F 61.2 °F 29.90 in North 3.3 mph 5.8 mph 75 % 0.00 in
02:08 69.4 °F 61.1 °F 29.91 in NNE 3.5 mph 4.6 mph 75 % 0.00 in
02:14 69.4 °F 61.1 °F 29.91 in NNE 1.5 mph 4.6 mph 75 % 0.00 in
02:19 69.3 °F 61.0 °F 29.90 in NNE 4.1 mph 8.1 mph 75 % 0.00 in
02:24 69.3 °F 61.0 °F 29.90 in ENE 4.3 mph 8.1 mph 75 % 0.00 in
02:34 69.2 °F 60.9 °F 29.91 in NNE 4.2 mph 8.1 mph 75 % 0.00 in
02:39 69.2 °F 60.9 °F 29.91 in NE 4.0 mph 10.4 mph 75 % 0.00 in
02:49 69.3 °F 61.4 °F 29.90 in North 1.7 mph 6.9 mph 76 % 0.00 in
02:54 69.3 °F 61.4 °F 29.90 in NNE 1.7 mph 4.6 mph 76 % 0.00 in
02:59 69.3 °F 61.4 °F 29.90 in NNE 3.3 mph 7.0 mph 76 % 0.00 in
03:02 69.3 °F 61.0 °F 29.90 in NNE 2.3 mph 4.6 mph 75 % 0.00 in
03:07 69.3 °F 61.4 °F 29.90 in NNE 2.6 mph 5.8 mph 76 % 0.00 in
03:12 69.2 °F 60.9 °F 29.90 in North 4.0 mph 5.8 mph 75 % 0.00 in
03:17 69.2 °F 60.9 °F 29.91 in North 4.7 mph 5.8 mph 75 % 0.00 in
03:23 69.2 °F 61.3 °F 29.91 in NNE 2.7 mph 3.5 mph 76 % 0.00 in
03:28 69.2 °F 60.9 °F 29.91 in NNE 4.0 mph 5.8 mph 75 % 0.00 in
03:33 69.2 °F 60.9 °F 29.90 in NNE 2.9 mph 6.9 mph 75 % 0.00 in
03:38 69.3 °F 60.7 °F 29.91 in NNE 4.8 mph 10.4 mph 74 % 0.00 in
03:43 69.3 °F 60.7 °F 29.90 in NNE 3.0 mph 4.6 mph 74 % 0.00 in
03:48 69.4 °F 60.4 °F 29.90 in NNE 4.6 mph 6.0 mph 73 % 0.00 in
03:53 69.4 °F 60.8 °F 29.90 in NNE 6.3 mph 9.2 mph 74 % 0.00 in
03:58 69.5 °F 61.2 °F 29.90 in NNE 7.3 mph 11.5 mph 75 % 0.00 in
04:03 69.6 °F 61.3 °F 29.90 in NNE 4.6 mph 6.9 mph 75 % 0.00 in
04:08 69.7 °F 61.4 °F 29.90 in North 4.4 mph 9.2 mph 75 % 0.00 in
04:13 69.7 °F 61.0 °F 29.90 in North 3.8 mph 5.8 mph 74 % 0.00 in
04:18 69.8 °F 61.5 °F 29.90 in NE 2.3 mph 5.8 mph 75 % 0.00 in
04:23 69.8 °F 61.5 °F 29.90 in NE 3.6 mph 4.6 mph 75 % 0.00 in
04:28 69.8 °F 61.5 °F 29.90 in NNE 3.8 mph 8.1 mph 75 % 0.00 in
04:33 69.7 °F 61.4 °F 29.90 in NNE 4.9 mph 6.9 mph 75 % 0.00 in
04:38 69.5 °F 61.2 °F 29.90 in NNE 4.9 mph 9.0 mph 75 % 0.00 in
04:43 69.4 °F 61.1 °F 29.90 in NNE 3.2 mph 7.0 mph 75 % 0.00 in
04:48 69.3 °F 61.0 °F 29.90 in NNE 3.4 mph 5.8 mph 75 % 0.00 in
04:53 69.2 °F 60.9 °F 29.90 in North 2.6 mph 9.2 mph 75 % 0.00 in
04:58 69.1 °F 60.8 °F 29.90 in NNW 4.0 mph 8.1 mph 75 % 0.00 in
05:03 69.1 °F 60.8 °F 29.90 in NNE 1.4 mph 4.0 mph 75 % 0.00 in
05:08 69.1 °F 60.8 °F 29.90 in NNE 4.7 mph 6.9 mph 75 % 0.00 in
05:13 69.1 °F 60.8 °F 29.90 in NW 1.4 mph 3.5 mph 75 % 0.00 in
05:18 69.1 °F 60.8 °F 29.90 in NW 2.6 mph 5.8 mph 75 % 0.00 in
05:23 69.2 °F 60.9 °F 29.91 in Calm   1.2 mph 75 % 0.00 in
05:28 69.2 °F 61.3 °F 29.91 in North 2.2 mph 6.0 mph 76 % 0.00 in
05:33 69.2 °F 60.9 °F 29.92 in North 3.5 mph 5.0 mph 75 % 0.00 in
05:38 69.2 °F 61.3 °F 29.92 in NNW 2.7 mph 5.8 mph 76 % 0.00 in
05:43 69.2 °F 61.3 °F 29.92 in NNE 0.4 mph 2.3 mph 76 % 0.00 in
05:48 69.3 °F 61.4 °F 29.92 in NNE 1.1 mph 1.2 mph 76 % 0.00 in
05:53 69.3 °F 61.4 °F 29.92 in North 2.3 mph 4.0 mph 76 % 0.00 in
05:58 69.4 °F 61.9 °F 29.92 in North 1.0 mph 3.5 mph 77 % 0.00 in
06:03 69.5 °F 62.3 °F 29.92 in NNE 1.7 mph 4.6 mph 78 % 0.00 in
06:09 69.6 °F 62.4 °F 29.92 in NNE 1.7 mph 3.5 mph 78 % 0.00 in
06:14 69.6 °F 62.1 °F 29.92 in North 2.9 mph 3.5 mph 77 % 0.00 in
06:19 69.7 °F 61.8 °F 29.92 in NNW 1.0 mph 5.8 mph 76 % 0.00 in
06:24 69.8 °F 62.3 °F 29.92 in NNW 0.2 mph 2.3 mph 77 % 0.00 in
06:29 69.8 °F 62.3 °F 29.92 in NNW 0.2 mph 2.3 mph 77 % 0.00 in
06:34 69.8 °F 62.3 °F 29.92 in North 0.2 mph 1.2 mph 77 % 0.00 in
06:39 69.8 °F 62.3 °F 29.92 in Calm     77 % 0.00 in
06:44 69.8 °F 61.9 °F 29.92 in North 2.3 mph 3.5 mph 76 % 0.00 in
06:49 69.7 °F 61.4 °F 29.92 in NNE 1.4 mph 3.5 mph 75 % 0.00 in
06:54 69.7 °F 61.4 °F 29.92 in NNE 1.5 mph 3.5 mph 75 % 0.00 in
06:59 69.6 °F 61.3 °F 29.92 in North 2.5 mph 3.5 mph 75 % 0.00 in
07:04 69.5 °F 61.6 °F 29.93 in Calm     76 % 0.00 in
07:09 69.5 °F 62.0 °F 29.93 in NW 2.1 mph 4.6 mph 77 % 0.00 in
07:14 69.4 °F 61.9 °F 29.93 in North 0.2 mph 5.8 mph 77 % 0.00 in
07:19 69.3 °F 61.8 °F 29.92 in WNW 1.6 mph 3.5 mph 77 % 0.00 in
07:24 69.1 °F 61.6 °F 29.93 in North 2.1 mph 5.0 mph 77 % 0.00 in
07:29 69.0 °F 61.5 °F 29.92 in NNE 0.7 mph 3.5 mph 77 % 0.00 in
07:34 68.9 °F 61.0 °F 29.93 in North 2.4 mph 4.6 mph 76 % 0.00 in
07:39 68.9 °F 61.0 °F 29.93 in NNE 0.4 mph 3.5 mph 76 % 0.00 in
07:44 68.9 °F 61.4 °F 29.93 in NNW 0.8 mph 2.3 mph 77 % 0.00 in
07:49 68.9 °F 61.0 °F 29.93 in NW 0.4 mph 3.5 mph 76 % 0.00 in
07:50 68.9 °F 61.0 °F 29.93 in NW 0.9 mph 1.2 mph 76 % 0.00 in
07:55 68.8 °F 60.9 °F 29.93 in NNE 3.0 mph 4.6 mph 76 % 0.00 in
08:00 68.8 °F 60.9 °F 29.94 in NNE 2.9 mph 5.8 mph 76 % 0.00 in
08:05 68.8 °F 60.9 °F 29.94 in NNW 1.8 mph 4.6 mph 76 % 0.00 in
08:10 68.8 °F 60.9 °F 29.94 in NNE 1.4 mph 5.8 mph 76 % 0.00 in
08:15 68.9 °F 61.0 °F 29.94 in NNW 4.4 mph 4.6 mph 76 % 0.00 in
08:21 69.0 °F 61.1 °F 29.94 in North 3.0 mph 7.0 mph 76 % 0.00 in
08:26 69.1 °F 61.2 °F 29.94 in North 5.0 mph 6.0 mph 76 % 0.00 in
08:31 69.3 °F 61.0 °F 29.94 in NNE 5.0 mph 7.0 mph 75 % 0.00 in
08:36 69.4 °F 61.1 °F 29.95 in NNE 2.5 mph 4.6 mph 75 % 0.00 in
08:41 69.6 °F 61.7 °F 29.95 in North 3.0 mph 7.0 mph 76 % 0.00 in
08:46 69.7 °F 61.4 °F 29.95 in North 5.0 mph 9.0 mph 75 % 0.00 in
08:51 69.9 °F 61.2 °F 29.95 in North 5.0 mph 8.0 mph 74 % 0.00 in
09:01 70.1 °F 61.0 °F 29.96 in North 5.6 mph 9.2 mph 73 % 0.00 in
09:06 70.3 °F 61.6 °F 29.96 in NNE 2.7 mph 6.9 mph 74 % 0.00 in
09:11 70.4 °F 61.7 °F 29.97 in NNE 6.6 mph 8.1 mph 74 % 0.00 in
09:16 70.5 °F 61.8 °F 29.97 in North 5.1 mph 9.2 mph 74 % 0.00 in
09:21 70.7 °F 62.8 °F 29.97 in North 3.0 mph 4.6 mph 76 % 0.00 in
09:26 70.9 °F 63.3 °F 29.98 in NNE 0.7 mph 3.5 mph 77 % 0.00 in
09:31 71.1 °F 63.5 °F 29.97 in NNE 2.1 mph 8.1 mph 77 % 0.00 in
09:36 71.2 °F 64.0 °F 29.98 in NNE 2.2 mph 4.6 mph 78 % 0.00 in
09:41 71.4 °F 64.2 °F 29.97 in North 5.2 mph 8.1 mph 78 % 0.00 in
09:51 71.7 °F 64.1 °F 29.97 in NNE 2.3 mph 3.5 mph 77 % 0.00 in
09:56 71.9 °F 64.3 °F 29.97 in ENE 2.9 mph 5.8 mph 77 % 0.00 in
10:01 72.1 °F 64.5 °F 29.96 in ENE 2.7 mph 5.8 mph 77 % 0.00 in
10:06 72.3 °F 64.7 °F 29.97 in NNE 2.6 mph 6.9 mph 77 % 0.00 in
10:11 72.5 °F 64.9 °F 29.97 in NNE 1.8 mph 3.5 mph 77 % 0.00 in
10:16 72.7 °F 65.1 °F 29.97 in NE 1.3 mph 3.5 mph 77 % 0.00 in
10:21 73.0 °F 65.4 °F 29.97 in ENE 1.9 mph 3.5 mph 77 % 0.00 in
10:26 73.4 °F 66.1 °F 29.97 in NNE 1.0 mph 2.3 mph 78 % 0.00 in
10:31 73.7 °F 66.4 °F 29.97 in North 1.4 mph 3.5 mph 78 % 0.00 in
10:36 74.0 °F 66.7 °F 29.97 in NE 1.4 mph 3.0 mph 78 % 0.00 in
10:41 74.2 °F 66.5 °F 29.97 in North 2.0 mph 3.5 mph 77 % 0.00 in
10:46 74.4 °F 66.7 °F 29.97 in NNE 1.5 mph 3.5 mph 77 % 0.00 in
10:51 74.5 °F 66.4 °F 29.97 in NW 0.7 mph 3.5 mph 76 % 0.00 in
10:56 74.6 °F 66.1 °F 29.97 in North 2.3 mph 4.6 mph 75 % 0.00 in
11:01 74.8 °F 66.3 °F 29.97 in NNE 2.8 mph 4.0 mph 75 % 0.00 in
11:06 75.1 °F 67.0 °F 29.97 in NNE 2.8 mph 3.5 mph 76 % 0.00 in
11:10 75.4 °F 67.7 °F 29.97 in NNE 3.2 mph 5.8 mph 77 % 0.00 in
11:15 76.1 °F 67.6 °F 29.97 in NNE 3.4 mph 6.0 mph 75 % 0.00 in
11:20 77.1 °F 68.9 °F 29.97 in NNW 1.6 mph 3.5 mph 76 % 0.00 in
11:25 78.2 °F 69.2 °F 29.97 in NNE 2.9 mph 3.5 mph 74 % 0.00 in
11:30 79.3 °F 68.7 °F 29.97 in NNE 2.7 mph 4.6 mph 70 % 0.00 in
11:35 80.4 °F 68.9 °F 29.97 in NNE 1.5 mph 3.5 mph 68 % 0.00 in
11:40 81.3 °F 68.9 °F 29.96 in North 2.7 mph 3.5 mph 66 % 0.00 in
11:46 82.0 °F 70.0 °F 29.97 in NNW 0.6 mph 3.5 mph 67 % 0.00 in
11:51 82.9 °F 69.9 °F 29.97 in North 0.9 mph 3.5 mph 65 % 0.00 in
11:56 83.4 °F 69.0 °F 29.96 in North 3.0 mph 7.0 mph 62 % 0.00 in
12:01 84.0 °F 70.0 °F 29.97 in NNE 3.5 mph 5.8 mph 63 % 0.00 in
12:06 84.3 °F 68.9 °F 29.97 in NW 2.0 mph 4.6 mph 60 % 0.00 in
12:11 84.6 °F 70.1 °F 29.97 in Calm   1.2 mph 62 % 0.00 in
12:16 85.2 °F 70.7 °F 29.96 in NNW 0.6 mph 2.3 mph 62 % 0.00 in
12:21 85.7 °F 69.7 °F 29.96 in NNW 0.4 mph 3.5 mph 59 % 0.00 in
12:26 86.0 °F 70.5 °F 29.96 in North 1.9 mph 3.5 mph 60 % 0.00 in
12:31 86.1 °F 70.6 °F 29.96 in NNE 2.0 mph 3.5 mph 60 % 0.00 in
12:36 86.3 °F 71.3 °F 29.96 in NNE 2.0 mph 3.5 mph 61 % 0.00 in
12:41 86.6 °F 70.1 °F 29.96 in NNE 1.5 mph 4.6 mph 58 % 0.00 in
12:46 86.8 °F 70.2 °F 29.96 in NNE 1.7 mph 3.5 mph 58 % 0.00 in
12:51 86.9 °F 68.8 °F 29.96 in NNE 2.9 mph 4.6 mph 55 % 0.00 in
12:56 87.1 °F 70.5 °F 29.95 in NNE 2.2 mph 5.0 mph 58 % 0.00 in
13:01 87.4 °F 69.8 °F 29.95 in North 3.1 mph 4.6 mph 56 % 0.00 in
13:06 87.6 °F 70.0 °F 29.95 in North 1.9 mph 3.5 mph 56 % 0.00 in
13:11 87.7 °F 70.6 °F 29.95 in North 0.3 mph 1.2 mph 57 % 0.00 in
13:16 87.8 °F 70.7 °F 29.95 in North 2.5 mph 3.5 mph 57 % 0.00 in
13:21 87.9 °F 70.8 °F 29.95 in WNW 2.0 mph 3.5 mph 57 % 0.00 in
13:26 87.9 °F 68.6 °F 29.95 in WNW 2.8 mph 5.8 mph 53 % 0.00 in
13:31 88.1 °F 68.8 °F 29.95 in NNE 0.6 mph 2.3 mph 53 % 0.00 in
13:36 88.2 °F 69.5 °F 29.95 in NW 2.8 mph 4.6 mph 54 % 0.00 in
13:41 88.1 °F 69.4 °F 29.95 in NNE 2.7 mph 5.0 mph 54 % 0.00 in
13:46 88.2 °F 68.9 °F 29.94 in NW 2.4 mph 4.6 mph 53 % 0.00 in
13:51 88.3 °F 68.4 °F 29.94 in NW 0.9 mph 4.6 mph 52 % 0.00 in
13:56 88.4 °F 69.6 °F 29.94 in North 2.7 mph 4.6 mph 54 % 0.00 in
14:01 88.4 °F 68.5 °F 29.94 in NNW 3.3 mph 4.6 mph 52 % 0.00 in
14:06 88.2 °F 68.9 °F 29.94 in NNE 2.4 mph 5.8 mph 53 % 0.00 in
14:12 88.1 °F 68.3 °F 29.94 in NNW 4.9 mph 9.2 mph 52 % 0.00 in
14:17 87.9 °F 69.7 °F 29.94 in NNW 4.5 mph 5.8 mph 55 % 0.00 in
14:22 87.7 °F 69.0 °F 29.94 in NNE 2.1 mph 3.5 mph 54 % 0.00 in
14:27 87.7 °F 69.5 °F 29.94 in WNW 1.8 mph 3.5 mph 55 % 0.00 in
14:32 87.9 °F 70.2 °F 29.94 in NNE 1.5 mph 4.6 mph 56 % 0.00 in
14:37 87.9 °F 70.2 °F 29.94 in NNE 4.2 mph 8.1 mph 56 % 0.00 in
14:42 88.0 °F 69.3 °F 29.94 in WNW 2.5 mph 4.0 mph 54 % 0.00 in
14:47 88.0 °F 68.7 °F 29.93 in NW 0.8 mph 2.3 mph 53 % 0.00 in
14:52 88.0 °F 67.6 °F 29.93 in NW 0.8 mph 3.5 mph 51 % 0.00 in
14:57 88.1 °F 67.7 °F 29.93 in WNW 2.8 mph 4.6 mph 51 % 0.00 in
15:02 88.2 °F 66.6 °F 29.93 in WNW 2.8 mph 4.6 mph 49 % 0.00 in
15:07 88.1 °F 66.5 °F 29.93 in WNW 2.1 mph 3.5 mph 49 % 0.00 in
15:12 88.1 °F 66.5 °F 29.93 in NW 1.2 mph 3.0 mph 49 % 0.00 in
15:17 88.1 °F 65.9 °F 29.93 in NNW 1.7 mph 4.0 mph 48 % 0.00 in
15:22 88.1 °F 65.9 °F 29.93 in NW 0.9 mph 3.5 mph 48 % 0.00 in
15:27 88.0 °F 66.4 °F 29.93 in NW 0.2 mph 3.5 mph 49 % 0.00 in
15:33 87.7 °F 67.3 °F 29.92 in Calm   3.5 mph 51 % 0.00 in
15:38 87.7 °F 67.3 °F 29.92 in North 1.5 mph 3.5 mph 51 % 0.00 in
15:43 87.7 °F 66.2 °F 29.92 in NW 0.4 mph 3.5 mph 49 % 0.00 in
15:48 87.8 °F 66.8 °F 29.92 in NNW 0.3 mph 3.5 mph 50 % 0.00 in
15:53 87.8 °F 66.8 °F 29.92 in WNW 2.1 mph 4.0 mph 50 % 0.00 in
15:58 87.7 °F 66.8 °F 29.92 in NNW 0.9 mph 3.5 mph 50 % 0.00 in
16:03 87.3 °F 66.4 °F 29.92 in North 1.0 mph 3.5 mph 50 % 0.00 in
16:08 86.8 °F 66.5 °F 29.92 in North 0.2 mph 3.5 mph 51 % 0.00 in
16:13 86.3 °F 66.6 °F 29.92 in NNE 0.6 mph 1.2 mph 52 % 0.00 in
16:18 85.7 °F 66.0 °F 29.92 in NNW 0.8 mph 3.5 mph 52 % 0.00 in
16:23 85.4 °F 66.3 °F 29.92 in NNE 1.6 mph 4.6 mph 53 % 0.00 in
16:29 84.9 °F 65.9 °F 29.92 in WNW 1.2 mph 3.5 mph 53 % 0.00 in
16:34 84.7 °F 65.7 °F 29.92 in NNE 1.0 mph 3.5 mph 53 % 0.00 in
16:39 84.4 °F 64.9 °F 29.92 in North 0.8 mph 4.6 mph 52 % 0.00 in
16:44 84.0 °F 65.0 °F 29.92 in NNE 1.1 mph 5.0 mph 53 % 0.00 in
16:49 83.7 °F 63.1 °F 29.92 in NNE 3.6 mph 5.8 mph 50 % 0.00 in
16:54 83.5 °F 63.5 °F 29.92 in NE 1.2 mph 3.5 mph 51 % 0.00 in
16:59 83.4 °F 63.9 °F 29.92 in NNW 1.6 mph 3.5 mph 52 % 0.00 in
17:04 83.3 °F 62.7 °F 29.92 in NE 2.6 mph 6.9 mph 50 % 0.00 in
17:09 83.0 °F 62.4 °F 29.92 in North 1.5 mph 4.0 mph 50 % 0.00 in
17:14 82.7 °F 62.2 °F 29.92 in North 1.1 mph 3.5 mph 50 % 0.00 in
17:19 82.5 °F 62.5 °F 29.92 in NNW 1.6 mph 3.5 mph 51 % 0.00 in
17:24 82.2 °F 61.1 °F 29.92 in NNE 2.2 mph 2.3 mph 49 % 0.00 in
17:30 82.0 °F 60.4 °F 29.92 in North 0.7 mph 3.5 mph 48 % 0.00 in
17:34 81.7 °F 59.5 °F 29.92 in North 0.6 mph 3.5 mph 47 % 0.00 in
17:40 81.6 °F 60.0 °F 29.92 in North 2.1 mph 6.9 mph 48 % 0.00 in
17:45 81.4 °F 59.8 °F 29.92 in North 3.7 mph 6.9 mph 48 % 0.00 in
17:50 81.2 °F 59.6 °F 29.92 in NNE 1.9 mph 3.5 mph 48 % 0.00 in
17:55 81.1 °F 59.6 °F 29.93 in North 1.9 mph 4.6 mph 48 % 0.00 in
18:00 80.9 °F 59.4 °F 29.92 in NW 2.7 mph 4.6 mph 48 % 0.00 in
18:05 80.8 °F 58.7 °F 29.93 in NNW 2.5 mph 4.6 mph 47 % 0.00 in
18:10 80.7 °F 59.8 °F 29.93 in North 3.2 mph 5.8 mph 49 % 0.00 in
18:15 80.5 °F 60.1 °F 29.93 in North 1.6 mph 4.6 mph 50 % 0.00 in
18:20 80.4 °F 60.6 °F 29.93 in North 1.8 mph 3.5 mph 51 % 0.00 in
18:25 80.3 °F 61.1 °F 29.93 in NNE 0.3 mph 1.2 mph 52 % 0.00 in
18:30 80.1 °F 60.9 °F 29.93 in North 1.0 mph 3.0 mph 52 % 0.00 in
18:36 80.0 °F 60.8 °F 29.93 in Calm   3.0 mph 52 % 0.00 in
18:41 79.8 °F 61.1 °F 29.93 in Calm   2.0 mph 53 % 0.00 in
18:46 79.6 °F 61.0 °F 29.93 in Calm   5.0 mph 53 % 0.00 in
18:51 79.4 °F 61.3 °F 29.93 in Calm   2.0 mph 54 % 0.00 in
18:56 79.1 °F 61.1 °F 29.93 in Calm   2.0 mph 54 % 0.00 in
19:01 78.9 °F 61.4 °F 29.93 in Calm   2.3 mph 55 % 0.00 in
19:06 78.7 °F 61.2 °F 29.93 in NNW 0.2 mph 1.2 mph 55 % 0.00 in
19:11 78.5 °F 62.0 °F 29.94 in Calm     57 % 0.00 in
19:16 78.3 °F 62.3 °F 29.94 in NNW 0.1 mph 1.2 mph 58 % 0.00 in
19:21 78.0 °F 62.5 °F 29.94 in Calm   1.2 mph 59 % 0.00 in
19:24 77.8 °F 62.8 °F 29.94 in Calm     60 % 0.00 in
19:29 77.5 °F 62.5 °F 29.94 in Calm     60 % 0.00 in
19:34 77.2 °F 63.2 °F 29.94 in Calm     62 % 0.00 in
19:39 76.8 °F 63.7 °F 29.94 in NNW 0.1 mph 1.2 mph 64 % 0.00 in
19:44 76.4 °F 63.3 °F 29.94 in Calm     64 % 0.00 in
19:49 76.0 °F 62.9 °F 29.95 in Calm     64 % 0.00 in
19:54 75.5 °F 62.9 °F 29.95 in Calm     65 % 0.00 in
19:59 75.0 °F 62.4 °F 29.95 in Calm     65 % 0.00 in
20:04 74.6 °F 62.5 °F 29.95 in Calm     66 % 0.00 in
20:09 74.2 °F 62.1 °F 29.95 in Calm     66 % 0.00 in
20:14 73.8 °F 61.7 °F 29.95 in Calm     66 % 0.00 in
20:19 73.5 °F 61.9 °F 29.95 in Calm     67 % 0.00 in
20:24 73.1 °F 61.9 °F 29.95 in Calm     68 % 0.00 in
20:29 72.8 °F 61.6 °F 29.95 in NNW 0.4 mph 2.3 mph 68 % 0.00 in
20:34 72.5 °F 61.7 °F 29.96 in Calm     69 % 0.00 in
20:39 72.2 °F 61.5 °F 29.96 in Calm     69 % 0.00 in
20:44 71.9 °F 61.2 °F 29.96 in Calm     69 % 0.00 in
20:50 71.7 °F 61.4 °F 29.96 in Calm     70 % 0.00 in
20:55 71.5 °F 61.6 °F 29.96 in Calm     71 % 0.00 in
21:00 71.1 °F 62.0 °F 29.96 in Calm     73 % 0.00 in
21:05 70.9 °F 61.4 °F 29.96 in Calm     72 % 0.00 in
21:10 70.6 °F 61.5 °F 29.96 in Calm     73 % 0.00 in
21:15 70.4 °F 61.7 °F 29.96 in Calm     74 % 0.00 in
21:20 70.1 °F 61.0 °F 29.96 in Calm     73 % 0.00 in
21:25 69.9 °F 61.2 °F 29.96 in Calm   1.2 mph 74 % 0.00 in
21:30 69.7 °F 61.4 °F 29.96 in Calm   2.3 mph 75 % 0.00 in
21:35 69.4 °F 61.1 °F 29.96 in NNW 0.7 mph 1.2 mph 75 % 0.00 in
21:40 69.2 °F 61.3 °F 29.96 in NNW 0.4 mph 1.2 mph 76 % 0.00 in
21:45 69.0 °F 61.1 °F 29.96 in Calm     76 % 0.00 in
21:50 68.8 °F 60.9 °F 29.96 in Calm     76 % 0.00 in
21:55 68.7 °F 60.8 °F 29.97 in Calm     76 % 0.00 in
22:00 68.5 °F 60.6 °F 29.97 in Calm     76 % 0.00 in
22:05 68.4 °F 60.9 °F 29.96 in Calm     77 % 0.00 in
22:10 68.3 °F 60.8 °F 29.96 in Calm     77 % 0.00 in
22:15 68.1 °F 61.0 °F 29.96 in Calm   1.2 mph 78 % 0.00 in
22:17 68.1 °F 61.0 °F 29.97 in Calm     78 % 0.00 in
22:22 68.0 °F 61.2 °F 29.97 in Calm     79 % 0.00 in
22:27 67.9 °F 61.1 °F 29.97 in Calm     79 % 0.00 in
22:33 67.7 °F 61.3 °F 29.97 in Calm     80 % 0.00 in
22:38 67.6 °F 61.2 °F 29.97 in Calm   1.2 mph 80 % 0.00 in
22:43 67.5 °F 61.1 °F 29.97 in Calm     80 % 0.00 in
22:48 67.4 °F 61.0 °F 29.97 in Calm     80 % 0.00 in
22:53 67.3 °F 61.3 °F 29.97 in Calm     81 % 0.00 in
22:58 67.2 °F 60.8 °F 29.97 in Calm     80 % 0.00 in
23:03 67.0 °F 60.6 °F 29.97 in Calm     80 % 0.00 in
23:08 66.9 °F 60.5 °F 29.97 in Calm     80 % 0.00 in
23:16 66.8 °F 60.8 °F 29.97 in Calm     81 % 0.00 in
23:21 66.6 °F 60.9 °F 29.97 in Calm     82 % 0.00 in
23:24 66.5 °F 60.8 °F 29.97 in Calm     82 % 0.00 in
23:26 66.5 °F 60.8 °F 29.97 in Calm     82 % 0.00 in
23:35 66.3 °F 60.6 °F 29.97 in Calm     82 % 0.00 in
23:40 66.2 °F 60.5 °F 29.97 in Calm     82 % 0.00 in
23:45 66.1 °F 60.4 °F 29.97 in Calm     82 % 0.00 in
23:50 66.0 °F 61.0 °F 29.97 in Calm     84 % 0.00 in
23:55 66.1 °F 61.5 °F 29.97 in NNW 0.4 mph 1.2 mph 85 % 0.00 in
Crab Meadow Weather
Compliments of Weather Underground - 3 mb

Script developed by  Jim McMurry - jmcmurry@mwt.net Adapted for the template by  Wim van der Kuil - Leuven-Template.eu

One Inch of Rain: One inch of rain over one square mile equals to 17.4 million gallons of water.